sensor_id;sensor_type;location;lat;lon;timestamp;temperature;humidity
7902;DHT22;3996;49.674;10.716;2024-01-15T00:01:16;-2.30;36.00
7902;DHT22;3996;49.674;10.716;2024-01-15T00:03:42;-2.30;35.20
7902;DHT22;3996;49.674;10.716;2024-01-15T00:06:08;-2.30;34.70
7902;DHT22;3996;49.674;10.716;2024-01-15T00:08:33;-2.30;34.70
7902;DHT22;3996;49.674;10.716;2024-01-15T00:10:59;-2.30;34.60
7902;DHT22;3996;49.674;10.716;2024-01-15T00:13:24;-2.30;34.80
7902;DHT22;3996;49.674;10.716;2024-01-15T00:15:50;-2.30;34.60
7902;DHT22;3996;49.674;10.716;2024-01-15T00:18:15;-2.30;34.20
7902;DHT22;3996;49.674;10.716;2024-01-15T00:20:41;-2.40;34.40
7902;DHT22;3996;49.674;10.716;2024-01-15T00:23:06;-2.50;34.60
7902;DHT22;3996;49.674;10.716;2024-01-15T00:25:32;-2.40;34.30
7902;DHT22;3996;49.674;10.716;2024-01-15T00:27:58;-2.40;34.40
7902;DHT22;3996;49.674;10.716;2024-01-15T00:30:23;-2.40;34.50
7902;DHT22;3996;49.674;10.716;2024-01-15T00:32:49;-2.40;35.40
7902;DHT22;3996;49.674;10.716;2024-01-15T00:35:14;-2.40;35.10
7902;DHT22;3996;49.674;10.716;2024-01-15T00:37:40;-2.30;34.30
7902;DHT22;3996;49.674;10.716;2024-01-15T00:40:06;-2.30;33.90
7902;DHT22;3996;49.674;10.716;2024-01-15T00:42:33;-2.30;34.10
7902;DHT22;3996;49.674;10.716;2024-01-15T00:44:59;-2.40;34.50
7902;DHT22;3996;49.674;10.716;2024-01-15T00:47:24;-2.30;34.60
7902;DHT22;3996;49.674;10.716;2024-01-15T00:49:50;-2.30;34.50
7902;DHT22;3996;49.674;10.716;2024-01-15T00:52:15;-2.30;35.00
7902;DHT22;3996;49.674;10.716;2024-01-15T00:54:41;-2.40;35.10
7902;DHT22;3996;49.674;10.716;2024-01-15T00:57:06;-2.30;35.10
7902;DHT22;3996;49.674;10.716;2024-01-15T00:59:32;-2.30;35.20
7902;DHT22;3996;49.674;10.716;2024-01-15T01:01:58;-2.30;35.60
7902;DHT22;3996;49.674;10.716;2024-01-15T01:04:23;-2.30;35.50
7902;DHT22;3996;49.674;10.716;2024-01-15T01:06:49;-2.30;35.70
7902;DHT22;3996;49.674;10.716;2024-01-15T01:09:14;-2.30;36.00
7902;DHT22;3996;49.674;10.716;2024-01-15T01:11:40;-2.20;35.80
7902;DHT22;3996;49.674;10.716;2024-01-15T01:14:06;-2.20;35.90
7902;DHT22;3996;49.674;10.716;2024-01-15T01:16:31;-2.20;35.30
7902;DHT22;3996;49.674;10.716;2024-01-15T01:19:04;-2.20;36.10
7902;DHT22;3996;49.674;10.716;2024-01-15T01:21:30;-2.20;36.20
7902;DHT22;3996;49.674;10.716;2024-01-15T01:23:56;-2.20;36.50
7902;DHT22;3996;49.674;10.716;2024-01-15T01:26:21;-2.20;36.50
7902;DHT22;3996;49.674;10.716;2024-01-15T01:28:47;-2.10;36.50
7902;DHT22;3996;49.674;10.716;2024-01-15T01:31:12;-2.20;36.70
7902;DHT22;3996;49.674;10.716;2024-01-15T01:33:39;-2.10;36.70
7902;DHT22;3996;49.674;10.716;2024-01-15T01:36:08;-2.10;36.80
7902;DHT22;3996;49.674;10.716;2024-01-15T01:38:35;-2.10;36.80
7902;DHT22;3996;49.674;10.716;2024-01-15T01:41:00;-2.10;36.70
7902;DHT22;3996;49.674;10.716;2024-01-15T01:43:26;-2.10;37.00
7902;DHT22;3996;49.674;10.716;2024-01-15T01:45:52;-2.10;37.20
7902;DHT22;3996;49.674;10.716;2024-01-15T01:48:18;-2.10;37.30
7902;DHT22;3996;49.674;10.716;2024-01-15T01:50:44;-2.10;37.50
7902;DHT22;3996;49.674;10.716;2024-01-15T01:53:10;-2.10;37.70
7902;DHT22;3996;49.674;10.716;2024-01-15T01:55:36;-2.00;37.80
7902;DHT22;3996;49.674;10.716;2024-01-15T01:58:04;-2.10;37.80
7902;DHT22;3996;49.674;10.716;2024-01-15T02:00:31;-2.00;38.40
7902;DHT22;3996;49.674;10.716;2024-01-15T02:02:57;-2.10;38.10
7902;DHT22;3996;49.674;10.716;2024-01-15T02:05:23;-2.10;38.80
7902;DHT22;3996;49.674;10.716;2024-01-15T02:07:48;-2.00;38.30
7902;DHT22;3996;49.674;10.716;2024-01-15T02:10:14;-2.00;38.30
7902;DHT22;3996;49.674;10.716;2024-01-15T02:12:40;-1.90;38.30
7902;DHT22;3996;49.674;10.716;2024-01-15T02:15:06;-2.00;38.20
7902;DHT22;3996;49.674;10.716;2024-01-15T02:17:31;-2.00;38.70
7902;DHT22;3996;49.674;10.716;2024-01-15T02:19:57;-2.00;38.40
7902;DHT22;3996;49.674;10.716;2024-01-15T02:22:22;-2.00;38.90
7902;DHT22;3996;49.674;10.716;2024-01-15T02:24:48;-2.00;39.00
7902;DHT22;3996;49.674;10.716;2024-01-15T02:27:14;-1.90;39.10
7902;DHT22;3996;49.674;10.716;2024-01-15T02:29:40;-1.90;39.80
7902;DHT22;3996;49.674;10.716;2024-01-15T02:32:06;-1.90;39.80
7902;DHT22;3996;49.674;10.716;2024-01-15T02:34:35;-1.90;39.80
7902;DHT22;3996;49.674;10.716;2024-01-15T02:37:00;-1.80;40.40
7902;DHT22;3996;49.674;10.716;2024-01-15T02:39:26;-1.80;39.90
7902;DHT22;3996;49.674;10.716;2024-01-15T02:41:51;-1.80;40.00
7902;DHT22;3996;49.674;10.716;2024-01-15T02:44:17;-1.80;40.00
7902;DHT22;3996;49.674;10.716;2024-01-15T02:46:43;-1.80;40.00
7902;DHT22;3996;49.674;10.716;2024-01-15T02:49:08;-1.80;39.90
7902;DHT22;3996;49.674;10.716;2024-01-15T02:51:34;-1.80;40.00
7902;DHT22;3996;49.674;10.716;2024-01-15T02:53:59;-1.80;39.50
7902;DHT22;3996;49.674;10.716;2024-01-15T02:56:25;-1.70;39.50
7902;DHT22;3996;49.674;10.716;2024-01-15T02:58:51;-1.70;39.10
7902;DHT22;3996;49.674;10.716;2024-01-15T03:01:19;-1.70;39.50
7902;DHT22;3996;49.674;10.716;2024-01-15T03:03:45;-1.70;40.00
7902;DHT22;3996;49.674;10.716;2024-01-15T03:06:10;-1.70;40.30
7902;DHT22;3996;49.674;10.716;2024-01-15T03:08:36;-1.70;40.00
7902;DHT22;3996;49.674;10.716;2024-01-15T03:11:02;-1.70;39.90
7902;DHT22;3996;49.674;10.716;2024-01-15T03:13:27;-1.70;40.10
7902;DHT22;3996;49.674;10.716;2024-01-15T03:15:53;-1.70;40.70
7902;DHT22;3996;49.674;10.716;2024-01-15T03:18:18;-1.70;40.90
7902;DHT22;3996;49.674;10.716;2024-01-15T03:20:44;-1.60;40.20
7902;DHT22;3996;49.674;10.716;2024-01-15T03:23:09;-1.60;40.50
7902;DHT22;3996;49.674;10.716;2024-01-15T03:25:35;-1.60;40.70
7902;DHT22;3996;49.674;10.716;2024-01-15T03:28:00;-1.60;40.70
7902;DHT22;3996;49.674;10.716;2024-01-15T03:30:26;-1.60;40.30
7902;DHT22;3996;49.674;10.716;2024-01-15T03:32:52;-1.50;40.30
7902;DHT22;3996;49.674;10.716;2024-01-15T03:35:17;-1.50;40.20
7902;DHT22;3996;49.674;10.716;2024-01-15T03:37:43;-1.50;40.30
7902;DHT22;3996;49.674;10.716;2024-01-15T03:40:09;-1.50;40.20
7902;DHT22;3996;49.674;10.716;2024-01-15T03:42:35;-1.50;40.20
7902;DHT22;3996;49.674;10.716;2024-01-15T03:45:00;-1.50;40.20
7902;DHT22;3996;49.674;10.716;2024-01-15T03:47:26;-1.50;40.20
7902;DHT22;3996;49.674;10.716;2024-01-15T03:49:52;-1.50;40.20
7902;DHT22;3996;49.674;10.716;2024-01-15T03:52:17;-1.40;40.30
7902;DHT22;3996;49.674;10.716;2024-01-15T03:54:43;-1.40;40.30
7902;DHT22;3996;49.674;10.716;2024-01-15T03:57:08;-1.40;40.30
7902;DHT22;3996;49.674;10.716;2024-01-15T03:59:34;-1.40;41.00
7902;DHT22;3996;49.674;10.716;2024-01-15T04:01:59;-1.40;40.70
7902;DHT22;3996;49.674;10.716;2024-01-15T04:04:25;-1.30;40.30
7902;DHT22;3996;49.674;10.716;2024-01-15T04:06:50;-1.40;40.70
7902;DHT22;3996;49.674;10.716;2024-01-15T04:09:16;-1.40;40.90
7902;DHT22;3996;49.674;10.716;2024-01-15T04:11:42;-1.40;40.80
7902;DHT22;3996;49.674;10.716;2024-01-15T04:14:07;-1.40;41.30
7902;DHT22;3996;49.674;10.716;2024-01-15T04:16:33;-1.30;41.10
7902;DHT22;3996;49.674;10.716;2024-01-15T04:18:58;-1.30;41.20
7902;DHT22;3996;49.674;10.716;2024-01-15T04:21:24;-1.30;41.20
7902;DHT22;3996;49.674;10.716;2024-01-15T04:23:49;-1.20;40.90
7902;DHT22;3996;49.674;10.716;2024-01-15T04:26:15;-1.20;40.70
7902;DHT22;3996;49.674;10.716;2024-01-15T04:28:40;-1.20;40.90
7902;DHT22;3996;49.674;10.716;2024-01-15T04:31:06;-1.30;41.20
7902;DHT22;3996;49.674;10.716;2024-01-15T04:33:31;-1.30;41.50
7902;DHT22;3996;49.674;10.716;2024-01-15T04:36:01;-1.20;41.50
7902;DHT22;3996;49.674;10.716;2024-01-15T04:38:27;-1.20;41.40
7902;DHT22;3996;49.674;10.716;2024-01-15T04:40:53;-1.30;41.60
7902;DHT22;3996;49.674;10.716;2024-01-15T04:43:18;-1.20;41.20
7902;DHT22;3996;49.674;10.716;2024-01-15T04:45:44;-1.20;41.30
7902;DHT22;3996;49.674;10.716;2024-01-15T04:48:09;-1.20;41.10
7902;DHT22;3996;49.674;10.716;2024-01-15T04:50:35;-1.10;40.60
7902;DHT22;3996;49.674;10.716;2024-01-15T04:53:00;-1.10;40.90
7902;DHT22;3996;49.674;10.716;2024-01-15T04:55:26;-1.10;40.90
7902;DHT22;3996;49.674;10.716;2024-01-15T04:57:51;-1.10;41.10
7902;DHT22;3996;49.674;10.716;2024-01-15T05:00:17;-1.10;41.40
7902;DHT22;3996;49.674;10.716;2024-01-15T05:02:43;-1.10;40.70
7902;DHT22;3996;49.674;10.716;2024-01-15T05:05:08;-1.10;40.60
7902;DHT22;3996;49.674;10.716;2024-01-15T05:07:34;-1.10;40.60
7902;DHT22;3996;49.674;10.716;2024-01-15T05:10:00;-1.10;40.50
7902;DHT22;3996;49.674;10.716;2024-01-15T05:12:25;-1.10;40.80
7902;DHT22;3996;49.674;10.716;2024-01-15T05:14:51;-1.10;40.20
7902;DHT22;3996;49.674;10.716;2024-01-15T05:17:16;-1.00;40.10
7902;DHT22;3996;49.674;10.716;2024-01-15T05:19:42;-1.00;40.10
7902;DHT22;3996;49.674;10.716;2024-01-15T05:22:07;-1.00;39.90
7902;DHT22;3996;49.674;10.716;2024-01-15T05:24:33;-1.00;39.80
7902;DHT22;3996;49.674;10.716;2024-01-15T05:26:58;-1.00;40.40
7902;DHT22;3996;49.674;10.716;2024-01-15T05:29:24;-1.00;40.60
7902;DHT22;3996;49.674;10.716;2024-01-15T05:31:50;-1.00;40.20
7902;DHT22;3996;49.674;10.716;2024-01-15T05:34:15;-1.00;40.20
7902;DHT22;3996;49.674;10.716;2024-01-15T05:36:41;-1.00;41.10
7902;DHT22;3996;49.674;10.716;2024-01-15T05:39:06;-1.00;42.10
7902;DHT22;3996;49.674;10.716;2024-01-15T05:41:32;-1.00;42.50
7902;DHT22;3996;49.674;10.716;2024-01-15T05:43:58;-1.00;43.10
7902;DHT22;3996;49.674;10.716;2024-01-15T05:46:23;-1.00;43.50
7902;DHT22;3996;49.674;10.716;2024-01-15T05:48:49;-1.00;43.40
7902;DHT22;3996;49.674;10.716;2024-01-15T05:51:14;-1.10;43.40
7902;DHT22;3996;49.674;10.716;2024-01-15T05:53:40;-1.10;43.70
7902;DHT22;3996;49.674;10.716;2024-01-15T05:56:08;-1.10;43.80
7902;DHT22;3996;49.674;10.716;2024-01-15T05:58:33;-1.10;44.20
7902;DHT22;3996;49.674;10.716;2024-01-15T06:00:59;-1.00;43.60
7902;DHT22;3996;49.674;10.716;2024-01-15T06:03:24;-1.00;43.10
7902;DHT22;3996;49.674;10.716;2024-01-15T06:05:50;-1.00;43.30
7902;DHT22;3996;49.674;10.716;2024-01-15T06:08:16;-1.00;43.00
7902;DHT22;3996;49.674;10.716;2024-01-15T06:10:41;-1.00;43.40
7902;DHT22;3996;49.674;10.716;2024-01-15T06:13:07;-1.10;43.20
7902;DHT22;3996;49.674;10.716;2024-01-15T06:15:32;-1.00;42.70
7902;DHT22;3996;49.674;10.716;2024-01-15T06:17:58;-1.00;42.30
7902;DHT22;3996;49.674;10.716;2024-01-15T06:20:23;-1.00;43.00
7902;DHT22;3996;49.674;10.716;2024-01-15T06:22:49;-1.00;42.70
7902;DHT22;3996;49.674;10.716;2024-01-15T06:25:14;-1.00;43.80
7902;DHT22;3996;49.674;10.716;2024-01-15T06:27:40;-0.90;43.30
7902;DHT22;3996;49.674;10.716;2024-01-15T06:30:06;-0.90;43.30
7902;DHT22;3996;49.674;10.716;2024-01-15T06:32:32;-0.90;42.90
7902;DHT22;3996;49.674;10.716;2024-01-15T06:34:57;-0.90;43.10
7902;DHT22;3996;49.674;10.716;2024-01-15T06:37:23;-0.80;44.70
7902;DHT22;3996;49.674;10.716;2024-01-15T06:39:48;-0.90;43.20
7902;DHT22;3996;49.674;10.716;2024-01-15T06:42:14;-0.90;43.00
7902;DHT22;3996;49.674;10.716;2024-01-15T06:44:39;-0.90;43.40
7902;DHT22;3996;49.674;10.716;2024-01-15T06:47:05;-0.80;44.30
7902;DHT22;3996;49.674;10.716;2024-01-15T06:49:31;-0.90;45.00
7902;DHT22;3996;49.674;10.716;2024-01-15T06:51:57;-0.90;45.60
7902;DHT22;3996;49.674;10.716;2024-01-15T06:54:22;-0.90;46.10
7902;DHT22;3996;49.674;10.716;2024-01-15T06:56:49;-0.90;45.90
7902;DHT22;3996;49.674;10.716;2024-01-15T06:59:15;-0.90;45.00
7902;DHT22;3996;49.674;10.716;2024-01-15T07:01:41;-0.90;44.80
7902;DHT22;3996;49.674;10.716;2024-01-15T07:04:06;-0.90;45.10
7902;DHT22;3996;49.674;10.716;2024-01-15T07:06:32;-0.90;45.60
7902;DHT22;3996;49.674;10.716;2024-01-15T07:08:57;-0.90;46.60
7902;DHT22;3996;49.674;10.716;2024-01-15T07:11:23;-1.00;47.40
7902;DHT22;3996;49.674;10.716;2024-01-15T07:13:49;-1.00;48.40
7902;DHT22;3996;49.674;10.716;2024-01-15T07:16:14;-1.00;48.00
7902;DHT22;3996;49.674;10.716;2024-01-15T07:18:40;-1.00;47.90
7902;DHT22;3996;49.674;10.716;2024-01-15T07:21:06;-1.00;47.50
7902;DHT22;3996;49.674;10.716;2024-01-15T07:23:32;-1.00;47.00
7902;DHT22;3996;49.674;10.716;2024-01-15T07:25:57;-1.00;46.50
7902;DHT22;3996;49.674;10.716;2024-01-15T07:28:23;-0.80;46.80
7902;DHT22;3996;49.674;10.716;2024-01-15T07:30:48;-0.90;46.70
7902;DHT22;3996;49.674;10.716;2024-01-15T07:33:14;-0.90;46.60
7902;DHT22;3996;49.674;10.716;2024-01-15T07:35:40;-1.00;46.70
7902;DHT22;3996;49.674;10.716;2024-01-15T07:38:05;-0.90;46.70
7902;DHT22;3996;49.674;10.716;2024-01-15T07:40:31;-0.90;46.40
7902;DHT22;3996;49.674;10.716;2024-01-15T07:42:56;-0.90;46.80
7902;DHT22;3996;49.674;10.716;2024-01-15T07:45:22;-0.90;47.60
7902;DHT22;3996;49.674;10.716;2024-01-15T07:47:47;-0.90;48.60
7902;DHT22;3996;49.674;10.716;2024-01-15T07:50:14;-0.90;49.20
7902;DHT22;3996;49.674;10.716;2024-01-15T07:52:40;-0.80;54.80
7902;DHT22;3996;49.674;10.716;2024-01-15T07:55:07;-0.80;52.80
7902;DHT22;3996;49.674;10.716;2024-01-15T07:57:33;-0.80;51.40
7902;DHT22;3996;49.674;10.716;2024-01-15T07:59:58;-0.90;50.60
7902;DHT22;3996;49.674;10.716;2024-01-15T08:02:24;-0.90;50.30
7902;DHT22;3996;49.674;10.716;2024-01-15T08:04:50;-0.90;51.20
7902;DHT22;3996;49.674;10.716;2024-01-15T08:07:15;-0.90;50.40
7902;DHT22;3996;49.674;10.716;2024-01-15T08:09:41;-0.90;50.00
7902;DHT22;3996;49.674;10.716;2024-01-15T08:12:07;-0.90;49.30
7902;DHT22;3996;49.674;10.716;2024-01-15T08:14:33;-0.80;49.30
7902;DHT22;3996;49.674;10.716;2024-01-15T08:16:59;-0.80;49.30
7902;DHT22;3996;49.674;10.716;2024-01-15T08:19:24;-0.80;48.90
7902;DHT22;3996;49.674;10.716;2024-01-15T08:21:50;-0.80;48.80
7902;DHT22;3996;49.674;10.716;2024-01-15T08:24:15;-0.80;48.40
7902;DHT22;3996;49.674;10.716;2024-01-15T08:26:42;-0.80;47.80
7902;DHT22;3996;49.674;10.716;2024-01-15T08:29:07;-0.70;48.20
7902;DHT22;3996;49.674;10.716;2024-01-15T08:31:33;-0.70;48.00
7902;DHT22;3996;49.674;10.716;2024-01-15T08:33:59;-0.70;47.80
7902;DHT22;3996;49.674;10.716;2024-01-15T08:36:25;-0.70;48.10
7902;DHT22;3996;49.674;10.716;2024-01-15T08:38:50;-0.70;48.60
7902;DHT22;3996;49.674;10.716;2024-01-15T08:41:16;-0.70;49.10
7902;DHT22;3996;49.674;10.716;2024-01-15T08:43:42;-0.70;49.40
7902;DHT22;3996;49.674;10.716;2024-01-15T08:46:07;-0.70;49.40
7902;DHT22;3996;49.674;10.716;2024-01-15T08:48:33;-0.70;49.40
7902;DHT22;3996;49.674;10.716;2024-01-15T08:50:59;-0.70;49.50
7902;DHT22;3996;49.674;10.716;2024-01-15T08:53:24;-0.70;50.20
7902;DHT22;3996;49.674;10.716;2024-01-15T08:55:50;-0.70;50.60
7902;DHT22;3996;49.674;10.716;2024-01-15T08:58:15;-0.60;51.30
7902;DHT22;3996;49.674;10.716;2024-01-15T09:00:41;-0.60;51.20
7902;DHT22;3996;49.674;10.716;2024-01-15T09:03:07;-0.60;52.10
7902;DHT22;3996;49.674;10.716;2024-01-15T09:05:34;-0.60;51.30
7902;DHT22;3996;49.674;10.716;2024-01-15T09:07:59;-0.50;50.50
7902;DHT22;3996;49.674;10.716;2024-01-15T09:10:25;-0.50;50.30
7902;DHT22;3996;49.674;10.716;2024-01-15T09:12:51;-0.50;49.50
7902;DHT22;3996;49.674;10.716;2024-01-15T09:15:16;-0.40;49.60
7902;DHT22;3996;49.674;10.716;2024-01-15T09:17:42;-0.30;49.40
7902;DHT22;3996;49.674;10.716;2024-01-15T09:20:09;-0.40;50.10
7902;DHT22;3996;49.674;10.716;2024-01-15T09:22:35;-0.30;49.90
7902;DHT22;3996;49.674;10.716;2024-01-15T09:25:01;-0.30;49.70
7902;DHT22;3996;49.674;10.716;2024-01-15T09:27:26;-0.20;49.80
7902;DHT22;3996;49.674;10.716;2024-01-15T09:29:52;-0.20;49.50
7902;DHT22;3996;49.674;10.716;2024-01-15T09:32:18;-0.20;48.90
7902;DHT22;3996;49.674;10.716;2024-01-15T09:34:46;-0.20;47.40
7902;DHT22;3996;49.674;10.716;2024-01-15T09:37:12;-0.10;47.20
7902;DHT22;3996;49.674;10.716;2024-01-15T09:39:39;-0.10;46.00
7902;DHT22;3996;49.674;10.716;2024-01-15T09:42:05;-0.10;46.30
7902;DHT22;3996;49.674;10.716;2024-01-15T09:44:31;-0.10;46.00
7902;DHT22;3996;49.674;10.716;2024-01-15T09:46:57;-0.10;46.00
7902;DHT22;3996;49.674;10.716;2024-01-15T09:49:23;-0.10;46.40
7902;DHT22;3996;49.674;10.716;2024-01-15T09:51:49;-0.10;46.80
7902;DHT22;3996;49.674;10.716;2024-01-15T09:54:16;-0.10;46.80
7902;DHT22;3996;49.674;10.716;2024-01-15T09:56:45;-0.10;46.10
7902;DHT22;3996;49.674;10.716;2024-01-15T09:59:15;-0.10;46.10
7902;DHT22;3996;49.674;10.716;2024-01-15T10:01:41;-0.10;46.20
7902;DHT22;3996;49.674;10.716;2024-01-15T10:04:11;-0.10;46.00
7902;DHT22;3996;49.674;10.716;2024-01-15T10:06:38;-0.10;46.10
7902;DHT22;3996;49.674;10.716;2024-01-15T10:09:05;-0.10;46.20
7902;DHT22;3996;49.674;10.716;2024-01-15T10:11:31;0.00;46.90
7902;DHT22;3996;49.674;10.716;2024-01-15T10:13:57;0.00;46.10
7902;DHT22;3996;49.674;10.716;2024-01-15T10:16:23;0.00;45.20
7902;DHT22;3996;49.674;10.716;2024-01-15T10:18:49;0.00;44.80
7902;DHT22;3996;49.674;10.716;2024-01-15T10:21:15;0.00;45.00
7902;DHT22;3996;49.674;10.716;2024-01-15T10:23:41;0.00;45.50
7902;DHT22;3996;49.674;10.716;2024-01-15T10:26:06;0.10;45.80
7902;DHT22;3996;49.674;10.716;2024-01-15T10:28:32;0.10;45.10
7902;DHT22;3996;49.674;10.716;2024-01-15T10:30:59;0.00;44.10
7902;DHT22;3996;49.674;10.716;2024-01-15T10:33:25;0.10;44.00
7902;DHT22;3996;49.674;10.716;2024-01-15T10:35:57;0.10;44.40
7902;DHT22;3996;49.674;10.716;2024-01-15T10:38:24;0.10;44.60
7902;DHT22;3996;49.674;10.716;2024-01-15T10:40:53;0.10;45.00
7902;DHT22;3996;49.674;10.716;2024-01-15T10:43:20;0.10;45.30
7902;DHT22;3996;49.674;10.716;2024-01-15T10:45:47;0.10;44.70
7902;DHT22;3996;49.674;10.716;2024-01-15T10:48:13;0.10;45.10
7902;DHT22;3996;49.674;10.716;2024-01-15T10:50:39;0.10;45.60
7902;DHT22;3996;49.674;10.716;2024-01-15T10:53:05;0.10;46.20
7902;DHT22;3996;49.674;10.716;2024-01-15T10:55:35;0.10;47.00
7902;DHT22;3996;49.674;10.716;2024-01-15T10:58:02;0.10;46.30
7902;DHT22;3996;49.674;10.716;2024-01-15T11:00:29;0.20;45.70
7902;DHT22;3996;49.674;10.716;2024-01-15T11:02:55;0.30;45.20
7902;DHT22;3996;49.674;10.716;2024-01-15T11:05:22;0.30;44.60
7902;DHT22;3996;49.674;10.716;2024-01-15T11:07:54;0.30;45.10
7902;DHT22;3996;49.674;10.716;2024-01-15T11:10:42;0.30;45.10
7902;DHT22;3996;49.674;10.716;2024-01-15T11:16:03;0.40;44.30
7902;DHT22;3996;49.674;10.716;2024-01-15T11:18:40;0.40;44.10
7902;DHT22;3996;49.674;10.716;2024-01-15T11:23:57;0.50;44.40
7902;DHT22;3996;49.674;10.716;2024-01-15T11:29:08;0.50;43.50
7902;DHT22;3996;49.674;10.716;2024-01-15T11:34:10;0.70;44.70
7902;DHT22;3996;49.674;10.716;2024-01-15T11:39:40;0.90;42.80
7902;DHT22;3996;49.674;10.716;2024-01-15T11:42:09;1.00;43.60
7902;DHT22;3996;49.674;10.716;2024-01-15T11:44:35;1.10;43.60
7902;DHT22;3996;49.674;10.716;2024-01-15T11:47:02;1.00;41.60
7902;DHT22;3996;49.674;10.716;2024-01-15T11:52:20;0.80;42.20
7902;DHT22;3996;49.674;10.716;2024-01-15T11:57:47;0.80;42.10
7902;DHT22;3996;49.674;10.716;2024-01-15T12:00:15;1.00;42.00
7902;DHT22;3996;49.674;10.716;2024-01-15T12:02:42;1.00;40.70
7902;DHT22;3996;49.674;10.716;2024-01-15T12:05:09;0.80;40.30
7902;DHT22;3996;49.674;10.716;2024-01-15T12:07:35;0.70;41.30
7902;DHT22;3996;49.674;10.716;2024-01-15T12:10:02;0.70;41.60
7902;DHT22;3996;49.674;10.716;2024-01-15T12:12:57;0.60;42.00
7902;DHT22;3996;49.674;10.716;2024-01-15T12:15:18;0.60;42.00
7902;DHT22;3996;49.674;10.716;2024-01-15T12:17:43;0.60;42.40
7902;DHT22;3996;49.674;10.716;2024-01-15T12:20:11;0.60;42.50
7902;DHT22;3996;49.674;10.716;2024-01-15T12:22:38;0.60;42.10
7902;DHT22;3996;49.674;10.716;2024-01-15T12:25:04;0.60;42.40
7902;DHT22;3996;49.674;10.716;2024-01-15T12:27:30;0.70;42.10
7902;DHT22;3996;49.674;10.716;2024-01-15T12:29:55;0.70;42.40
7902;DHT22;3996;49.674;10.716;2024-01-15T12:32:21;0.70;42.10
7902;DHT22;3996;49.674;10.716;2024-01-15T12:34:49;0.60;42.00
7902;DHT22;3996;49.674;10.716;2024-01-15T12:37:17;0.70;42.10
7902;DHT22;3996;49.674;10.716;2024-01-15T12:39:43;0.80;42.60
7902;DHT22;3996;49.674;10.716;2024-01-15T12:42:09;0.70;42.10
7902;DHT22;3996;49.674;10.716;2024-01-15T12:44:35;1.00;49.60
7902;DHT22;3996;49.674;10.716;2024-01-15T12:47:04;0.90;42.30
7902;DHT22;3996;49.674;10.716;2024-01-15T12:49:30;0.90;42.00
7902;DHT22;3996;49.674;10.716;2024-01-15T12:51:59;0.80;42.20
7902;DHT22;3996;49.674;10.716;2024-01-15T12:54:25;0.80;42.20
7902;DHT22;3996;49.674;10.716;2024-01-15T12:56:51;0.70;42.10
7902;DHT22;3996;49.674;10.716;2024-01-15T12:59:18;0.70;43.10
7902;DHT22;3996;49.674;10.716;2024-01-15T13:01:45;0.80;42.60
7902;DHT22;3996;49.674;10.716;2024-01-15T13:04:11;0.80;43.30
7902;DHT22;3996;49.674;10.716;2024-01-15T13:06:37;0.70;43.80
7902;DHT22;3996;49.674;10.716;2024-01-15T13:09:03;0.80;43.30
7902;DHT22;3996;49.674;10.716;2024-01-15T13:11:32;0.70;43.80
7902;DHT22;3996;49.674;10.716;2024-01-15T13:13:58;0.70;43.80
7902;DHT22;3996;49.674;10.716;2024-01-15T13:16:24;0.70;43.60
7902;DHT22;3996;49.674;10.716;2024-01-15T13:18:52;0.70;43.80
7902;DHT22;3996;49.674;10.716;2024-01-15T13:21:18;0.70;44.50
7902;DHT22;3996;49.674;10.716;2024-01-15T13:23:43;0.70;44.80
7902;DHT22;3996;49.674;10.716;2024-01-15T13:26:09;0.70;43.80
7902;DHT22;3996;49.674;10.716;2024-01-15T13:28:34;0.70;44.10
7902;DHT22;3996;49.674;10.716;2024-01-15T13:31:29;0.70;44.90
7902;DHT22;3996;49.674;10.716;2024-01-15T13:34:06;0.70;44.10
7902;DHT22;3996;49.674;10.716;2024-01-15T13:37:55;0.70;43.80
7902;DHT22;3996;49.674;10.716;2024-01-15T13:41:38;0.70;43.30
7902;DHT22;3996;49.674;10.716;2024-01-15T13:44:10;0.70;43.40
7902;DHT22;3996;49.674;10.716;2024-01-15T13:47:31;0.70;43.30
7902;DHT22;3996;49.674;10.716;2024-01-15T13:50:25;0.70;44.20
7902;DHT22;3996;49.674;10.716;2024-01-15T13:53:39;0.80;44.50
7902;DHT22;3996;49.674;10.716;2024-01-15T13:56:15;0.90;44.10
7902;DHT22;3996;49.674;10.716;2024-01-15T13:58:42;1.00;43.70
7902;DHT22;3996;49.674;10.716;2024-01-15T14:04:10;1.00;43.10
7902;DHT22;3996;49.674;10.716;2024-01-15T14:07:24;0.90;42.30
7902;DHT22;3996;49.674;10.716;2024-01-15T14:10:48;0.90;42.30
7902;DHT22;3996;49.674;10.716;2024-01-15T14:14:03;0.90;42.30
7902;DHT22;3996;49.674;10.716;2024-01-15T14:16:46;0.80;42.20
7902;DHT22;3996;49.674;10.716;2024-01-15T14:20:16;0.80;43.00
7902;DHT22;3996;49.674;10.716;2024-01-15T14:23:19;0.80;42.20
7902;DHT22;3996;49.674;10.716;2024-01-15T14:25:46;0.80;42.90
7902;DHT22;3996;49.674;10.716;2024-01-15T14:28:13;0.70;42.90
7902;DHT22;3996;49.674;10.716;2024-01-15T14:30:40;0.70;43.00
7902;DHT22;3996;49.674;10.716;2024-01-15T14:33:05;0.70;43.20
7902;DHT22;3996;49.674;10.716;2024-01-15T14:35:34;0.70;44.10
7902;DHT22;3996;49.674;10.716;2024-01-15T14:38:00;0.70;44.90
7902;DHT22;3996;49.674;10.716;2024-01-15T14:40:29;0.70;45.80
7902;DHT22;3996;49.674;10.716;2024-01-15T14:42:55;0.70;45.30
7902;DHT22;3996;49.674;10.716;2024-01-15T14:45:27;0.70;45.00
7902;DHT22;3996;49.674;10.716;2024-01-15T14:47:53;0.70;44.50
7902;DHT22;3996;49.674;10.716;2024-01-15T14:50:19;0.60;45.30
7902;DHT22;3996;49.674;10.716;2024-01-15T14:52:45;0.70;46.40
7902;DHT22;3996;49.674;10.716;2024-01-15T14:55:11;0.80;50.10
7902;DHT22;3996;49.674;10.716;2024-01-15T14:57:37;0.80;50.10
7902;DHT22;3996;49.674;10.716;2024-01-15T15:00:04;0.70;50.60
7902;DHT22;3996;49.674;10.716;2024-01-15T15:02:34;0.70;50.60
7902;DHT22;3996;49.674;10.716;2024-01-15T15:05:02;0.60;51.10
7902;DHT22;3996;49.674;10.716;2024-01-15T15:07:28;0.60;51.70
7902;DHT22;3996;49.674;10.716;2024-01-15T15:09:54;0.60;52.30
7902;DHT22;3996;49.674;10.716;2024-01-15T15:12:22;0.60;53.00
7902;DHT22;3996;49.674;10.716;2024-01-15T15:14:49;0.50;52.90
7902;DHT22;3996;49.674;10.716;2024-01-15T15:17:17;0.60;53.00
7902;DHT22;3996;49.674;10.716;2024-01-15T15:19:45;0.60;52.70
7902;DHT22;3996;49.674;10.716;2024-01-15T15:22:14;0.60;53.00
7902;DHT22;3996;49.674;10.716;2024-01-15T15:24:46;0.60;52.90
7902;DHT22;3996;49.674;10.716;2024-01-15T15:27:12;0.50;52.40
7902;DHT22;3996;49.674;10.716;2024-01-15T15:29:37;0.50;52.70
7902;DHT22;3996;49.674;10.716;2024-01-15T15:32:03;0.50;52.50
7902;DHT22;3996;49.674;10.716;2024-01-15T15:34:29;0.50;51.80
7902;DHT22;3996;49.674;10.716;2024-01-15T15:36:54;0.60;54.60
7902;DHT22;3996;49.674;10.716;2024-01-15T15:39:20;0.90;56.60
7902;DHT22;3996;49.674;10.716;2024-01-15T15:41:49;0.90;54.30
7902;DHT22;3996;49.674;10.716;2024-01-15T15:44:14;0.80;50.90
7902;DHT22;3996;49.674;10.716;2024-01-15T15:46:42;0.70;51.20
7902;DHT22;3996;49.674;10.716;2024-01-15T15:52:33;0.80;51.40
7902;DHT22;3996;49.674;10.716;2024-01-15T15:55:20;0.80;49.20
7902;DHT22;3996;49.674;10.716;2024-01-15T15:57:48;0.70;49.10
7902;DHT22;3996;49.674;10.716;2024-01-15T16:00:14;0.70;49.10
7902;DHT22;3996;49.674;10.716;2024-01-15T16:02:40;0.60;49.00
7902;DHT22;3996;49.674;10.716;2024-01-15T16:05:06;0.60;49.10
7902;DHT22;3996;49.674;10.716;2024-01-15T16:07:35;0.60;48.50
7902;DHT22;3996;49.674;10.716;2024-01-15T16:10:01;0.60;48.30
7902;DHT22;3996;49.674;10.716;2024-01-15T16:12:26;0.60;49.10
7902;DHT22;3996;49.674;10.716;2024-01-15T16:14:52;0.60;48.20
7902;DHT22;3996;49.674;10.716;2024-01-15T16:17:18;0.60;48.60
7902;DHT22;3996;49.674;10.716;2024-01-15T16:19:43;0.60;48.60
7902;DHT22;3996;49.674;10.716;2024-01-15T16:22:12;0.90;52.40